Mayan Queen IV — ZCXC8 — position and weather

sailwx.info

Track history (hours):
 
Tides and Currents Weather Stations Pressure Air Temp Water Temp Dewpoint Dewpoint Depression Visibility Wind Speed Wind Dir Waves Ship Positions

Mayan Queen IV

Last reported at 2018-Jun-18 11:09 UTC. Time now 2018-Jun-25 06:13 UTC.
Position N 38°05' E 015°33'.

Length 94 m; draft 4.2 m.

MMSI: 319316000.

Date/timePositionNaut miles runAvg speedWind from/ knotsBaromVisibWave heightAir tempDewpointWater temp
2018-Jun-18 11:09N 38°05' E 015°33'1413.1
2018-Jun-18 10:03N 38°19' E 015°38'316.5
2018-Jun-18 09:51N 38°21' E 015°34'616.1
2018-Jun-18 09:29N 38°21' E 015°26'816.5
2018-Jun-18 09:01N 38°20' E 015°16'915.8
2018-Jun-18 08:28N 38°19' E 015°05'7115.3
2018-Jun-18 03:48N 38°23' E 013°35'415.2
2018-Jun-18 03:30N 38°23' E 013°29'815.2
2018-Jun-18 03:00N 38°24' E 013°20'815.3
2018-Jun-18 02:29N 38°24' E 013°10'715.1
2018-Jun-18 02:00N 38°24' E 013°00'58115.1
2018-Jun-16 11:37N 37°20' E 000°49'214.7
2018-Jun-16 11:27N 37°19' E 000°46'714.7
2018-Jun-16 10:59N 37°17' E 000°38'714.8
2018-Jun-16 10:29N 37°14' E 000°29'914.9
2018-Jun-16 09:54N 37°11' E 000°19'614.9
2018-Jun-16 09:30N 37°08' E 000°12'815.0
2018-Jun-16 09:00N 37°06' E 000°03'815.0
2018-Jun-16 08:30N 37°03' W 000°05'814.9
2018-Jun-16 07:59N 37°01' W 000°15'714.8
2018-Jun-16 07:29N 36°57' W 000°23'714.8
2018-Jun-16 07:00N 36°54' W 000°31'815.1
2018-Jun-16 06:30N 36°51' W 000°40'22815.9
2018-Jun-15 16:06N 35°59' W 005°16'217.7
2018-Jun-15 16:00N 35°58' W 005°18'  
2018-Jun-13 02:46N 37°32' W 024°04'415.3
2018-Jun-13 02:30N 37°33' W 024°09'715.2
2018-Jun-13 02:00N 37°33' W 024°19'815.2
2018-Jun-13 01:30N 37°33' W 024°28'815.5
2018-Jun-13 01:00N 37°34' W 024°38'815.8
2018-Jun-13 00:30N 37°34' W 024°48'815.1
2018-Jun-13 00:00N 37°34' W 024°58'612.3
2018-Jun-12 23:30N 37°35' W 025°05'611.9
2018-Jun-12 23:00N 37°35' W 025°13'611.8
2018-Jun-12 22:30N 37°35' W 025°20'612.5
2018-Jun-12 22:00N 37°36' W 025°28'714.8
2018-Jun-12 21:30N 37°36' W 025°37'815.2
2018-Jun-12 21:00N 37°36' W 025°47'815.2
2018-Jun-12 20:30N 37°37' W 025°57'815.1
2018-Jun-12 20:00N 37°37' W 026°06'815.6
2018-Jun-12 19:30N 37°38' W 026°16'815.5
2018-Jun-12 19:01N 37°38' W 026°26'814.9
2018-Jun-12 18:30N 37°38' W 026°35'815.1
2018-Jun-12 17:58N 37°38' W 026°46'714.8
2018-Jun-12 17:31N 37°39' W 026°54'2815.2
2018-Jun-12 15:39N 37°39' W 027°30'415.6
2018-Jun-12 15:26N 37°39' W 027°34'814.9
2018-Jun-12 14:53N 37°40' W 027°44'614.9
2018-Jun-12 14:31N 37°40' W 027°51'815.1
2018-Jun-12 14:00N 37°40' W 028°01'815.3
2018-Jun-12 13:30N 37°40' W 028°11'815.2
2018-Jun-12 13:00N 37°40' W 028°20'815.3
2018-Jun-12 12:30N 37°40' W 028°30'815.3
2018-Jun-12 12:00N 37°40' W 028°40'815.7
2018-Jun-12 11:30N 37°40' W 028°49'815.4
2018-Jun-12 11:01N 37°40' W 028°59'815.2
2018-Jun-12 10:30N 37°41' W 029°09'815.6
2018-Jun-12 10:00N 37°41' W 029°19'815.4
2018-Jun-12 09:30N 37°41' W 029°29'  
Track history (hours):
 
Tides and Currents Weather Stations Pressure Air Temp Water Temp Dewpoint Dewpoint Depression Visibility Wind Speed Wind Dir Waves Ship Positions

Mayan Queen IV

Last reported at 2018-Jun-18 11:09 UTC. Time now 2018-Jun-25 06:13 UTC.
Position N 38°05' E 015°33'.

Length 94 m; draft 4.2 m.

MMSI: 319316000.

Date/timePositionNaut miles runAvg speedWind from/ knotsBaromVisibWave heightAir tempDewpointWater temp
2018-Jun-18 11:09N 38°05' E 015°33'1413.1
2018-Jun-18 10:03N 38°19' E 015°38'316.5
2018-Jun-18 09:51N 38°21' E 015°34'616.1
2018-Jun-18 09:29N 38°21' E 015°26'816.5
2018-Jun-18 09:01N 38°20' E 015°16'915.8
2018-Jun-18 08:28N 38°19' E 015°05'7115.3
2018-Jun-18 03:48N 38°23' E 013°35'415.2
2018-Jun-18 03:30N 38°23' E 013°29'815.2
2018-Jun-18 03:00N 38°24' E 013°20'815.3
2018-Jun-18 02:29N 38°24' E 013°10'715.1
2018-Jun-18 02:00N 38°24' E 013°00'58115.1
2018-Jun-16 11:37N 37°20' E 000°49'214.7
2018-Jun-16 11:27N 37°19' E 000°46'714.7
2018-Jun-16 10:59N 37°17' E 000°38'714.8
2018-Jun-16 10:29N 37°14' E 000°29'914.9
2018-Jun-16 09:54N 37°11' E 000°19'614.9
2018-Jun-16 09:30N 37°08' E 000°12'815.0
2018-Jun-16 09:00N 37°06' E 000°03'815.0
2018-Jun-16 08:30N 37°03' W 000°05'814.9
2018-Jun-16 07:59N 37°01' W 000°15'714.8
2018-Jun-16 07:29N 36°57' W 000°23'714.8
2018-Jun-16 07:00N 36°54' W 000°31'815.1
2018-Jun-16 06:30N 36°51' W 000°40'22815.9
2018-Jun-15 16:06N 35°59' W 005°16'217.7
2018-Jun-15 16:00N 35°58' W 005°18'  
2018-Jun-13 02:46N 37°32' W 024°04'415.3
2018-Jun-13 02:30N 37°33' W 024°09'715.2
2018-Jun-13 02:00N 37°33' W 024°19'815.2
2018-Jun-13 01:30N 37°33' W 024°28'815.5
2018-Jun-13 01:00N 37°34' W 024°38'815.8
2018-Jun-13 00:30N 37°34' W 024°48'815.1
2018-Jun-13 00:00N 37°34' W 024°58'612.3
2018-Jun-12 23:30N 37°35' W 025°05'611.9
2018-Jun-12 23:00N 37°35' W 025°13'611.8
2018-Jun-12 22:30N 37°35' W 025°20'612.5
2018-Jun-12 22:00N 37°36' W 025°28'714.8
2018-Jun-12 21:30N 37°36' W 025°37'815.2
2018-Jun-12 21:00N 37°36' W 025°47'815.2
2018-Jun-12 20:30N 37°37' W 025°57'815.1
2018-Jun-12 20:00N 37°37' W 026°06'815.6
2018-Jun-12 19:30N 37°38' W 026°16'815.5
2018-Jun-12 19:01N 37°38' W 026°26'814.9
2018-Jun-12 18:30N 37°38' W 026°35'815.1
2018-Jun-12 17:58N 37°38' W 026°46'714.8
2018-Jun-12 17:31N 37°39' W 026°54'2815.2
2018-Jun-12 15:39N 37°39' W 027°30'415.6
2018-Jun-12 15:26N 37°39' W 027°34'814.9
2018-Jun-12 14:53N 37°40' W 027°44'614.9
2018-Jun-12 14:31N 37°40' W 027°51'815.1
2018-Jun-12 14:00N 37°40' W 028°01'815.3
2018-Jun-12 13:30N 37°40' W 028°11'815.2
2018-Jun-12 13:00N 37°40' W 028°20'815.3
2018-Jun-12 12:30N 37°40' W 028°30'815.3
2018-Jun-12 12:00N 37°40' W 028°40'815.7
2018-Jun-12 11:30N 37°40' W 028°49'815.4
2018-Jun-12 11:01N 37°40' W 028°59'815.2
2018-Jun-12 10:30N 37°41' W 029°09'815.6
2018-Jun-12 10:00N 37°41' W 029°19'815.4
2018-Jun-12 09:30N 37°41' W 029°29'  

Dump ship's entire track history